• Join FlightAware (Why Join?)
  • Login
  • US Flag 
02:11AM EDT


 

Airport Tracker/Info


-or-


 

Live Flight TrackerFlight Track Log ✈ N70RB ✈ 22-Jul-2013 ✈ KBTL - KBTL

Flight Track Log - Related Links

Times and Time Zones

All times are in EDT time to prevent confusion due to time zone crossing. See the N70RB flight status page for this flight to view local times or setup timezone preferences in your user account.

Time Position Orientation Groundspeed Altitude Reporting Facility
EDT Latitude Longitude Course Direction KTS MPH feet Rate Location/Type
03:13PM 42.2461 -85.4817 252° West 106 122 4,900  Level Chicago Center
03:14PM 42.2406 -85.5289 261° West 119 137 4,900  Level Chicago Center
03:15PM 42.2614 -85.5756 301° West 147 169 4,900  Level Chicago Center
03:16PM 42.3065 -85.2501 259° West  Level Estimated
03:16PM 42.2994 -85.5639 13° North 145 167 4,900  Level Chicago Center
03:17PM 42.3065 -85.2501 252° West  Level Estimated
03:17PM 42.3389 -85.5569 North 144 166 4,900  Level Chicago Center
03:18PM 42.3065 -85.2501 252° West  Level Estimated
03:18PM 42.3767 -85.5578 359° North 139 160 4,200  Level Chicago Center
03:19PM 42.4014 -85.5925 314° West 133 153 3,500 -600 Descending Chicago Center
03:20PM 42.4067 -85.5642 76° East 120 138 3,000 -480 Descending Chicago Center
03:21PM 42.3761 -85.5594 173° South 112 129 2,600 -240 Descending Chicago Center
03:22PM 42.3469 -85.5581 178° South 107 123 2,600 -180 Level Chicago Center
03:23PM 42.3144 -85.5575 179° South 112 129 2,300 -540 Descending Chicago Center
03:24PM 42.2889 -85.5553 176° South 98 113 1,600 -240 Descending Chicago Center
03:26PM 42.2924 -85.4947 75° East  Level Estimated
03:27PM 42.2111 -85.5428 56° Northeast 113 130 1,500  Level Chicago Center
03:28PM 42.1903 -85.5547 203° Southwest 116 133 2,200 660 Climbing Chicago Center
03:29PM 42.1881 -85.5939 266° West 105 121 2,900 300 Climbing Chicago Center
03:30PM 42.1922 -85.6364 278° West 122 140 2,900  Level Chicago Center
03:32PM 42.2286 -85.6572 337° Northwest 138 159 2,900  Level Chicago Center
03:33PM 42.3000 -85.2500 56° Northeast  Level FlightAware Approximate
03:33PM 42.2719 -85.6819 337° Northwest 141 162 2,900  Level Chicago Center
03:34PM 42.3094 -85.6972 343° North 142 163 2,900  Level Chicago Center
03:35PM 42.3489 -85.6997 357° North 142 163 2,900  Level Chicago Center
03:36PM 42.3878 -85.6903 10° North 141 162 2,900  Level Chicago Center
03:37PM 42.4239 -85.6739 19° North 155 178 2,900  Level Chicago Center
03:38PM 42.4222 -85.6203 92° East 132 152 2,900  Level Chicago Center
03:39PM 42.3942 -85.5911 142° Southeast 128 147 2,900 -60 Level Chicago Center
03:40PM 42.3608 -85.5756 161° South 125 144 2,800 -180 Descending Chicago Center
03:41PM 42.3308 -85.5703 173° South 114 131 2,600 -420 Descending Chicago Center
03:42PM 42.3022 -85.5650 172° South 107 123 2,000 -480 Descending Chicago Center
03:43PM 42.2683 -85.5572 170° South 106 122 1,700 -180 Descending Chicago Center
03:45PM 42.2710 -85.5102 86° East  Level FlightAware Approximate
03:46PM 42.2022 -85.5456 86° East 113 130 1,500  Level Chicago Center
03:47PM 42.1792 -85.5331 158° South 88 101 2,200 660 Climbing Chicago Center
03:48PM 42.2050 -85.5031 41° Northeast 116 133 2,900 480 Climbing Chicago Center
03:49PM 42.2339 -85.4778 33° Northeast 122 140 3,300 480 Climbing Chicago Center
03:50PM 42.2656 -85.4547 28° Northeast 127 146 3,900 240 Climbing Chicago Center
03:51PM 42.3061 -85.4225 30° Northeast 139 160 3,900  Level Chicago Center
03:52PM 42.3417 -85.3967 28° Northeast 144 166 3,900  Level Chicago Center
03:53PM 42.3736 -85.3689 33° Northeast 140 161 3,900  Level Chicago Center
03:54PM 42.4028 -85.3333 42° Northeast 140 161 3,900  Level Chicago Center
03:55PM 42.4325 -85.3017 38° Northeast 139 160 4,000  Climbing Chicago Center
03:56PM 42.4597 -85.2531 53° Northeast 137 158 4,000  Level Chicago Center
03:57PM 42.4706 -85.2042 73° East 144 166 4,000  Level Chicago Center
03:58PM 42.4564 -85.1633 115° Southeast 131 151 4,000 -240 Level Chicago Center
03:59PM 42.4336 -85.1242 128° Southeast 131 151 3,600 -540 Descending Chicago Center
04:00PM 42.3978 -85.1389 197° South 129 148 3,000 -540 Descending Chicago Center
04:01PM 42.3708 -85.1736 224° Southwest 131 151 2,600 -660 Descending Chicago Center
04:02PM 42.3467 -85.2053 224° Southwest 125 144 1,700 -600 Descending Chicago Center
04:03PM 42.3231 -85.2364 224° Southwest 118 136 1,400 -300 Descending Chicago Center